createdAt,value
2023-05-02T00:02:28.084Z,9.72
2023-05-02T00:04:56.520Z,9.70
2023-05-02T00:07:25.033Z,9.68
2023-05-02T00:09:52.987Z,9.60
2023-05-02T00:12:20.887Z,9.60
2023-05-02T00:14:48.746Z,9.60
2023-05-02T00:17:19.079Z,9.52
2023-05-02T00:19:47.627Z,9.50
2023-05-02T00:22:15.499Z,9.50
2023-05-02T00:24:43.253Z,9.50
2023-05-02T00:27:11.135Z,9.50
2023-05-02T00:29:39.177Z,9.50
2023-05-02T00:32:07.362Z,9.50
2023-05-02T00:34:35.257Z,9.58
2023-05-02T00:37:03.015Z,9.60
2023-05-02T00:39:30.779Z,9.60
2023-05-02T00:42:02.180Z,9.50
2023-05-02T00:44:30.205Z,9.50
2023-05-02T00:46:59.193Z,9.50
2023-05-02T00:49:27.188Z,9.40
2023-05-02T00:51:55.617Z,9.40
2023-05-02T00:54:23.449Z,9.40
2023-05-02T00:56:51.364Z,9.40
2023-05-02T00:59:20.073Z,9.38
2023-05-02T01:02:10.167Z,9.36
2023-05-02T01:05:11.917Z,9.36
2023-05-02T01:07:45.691Z,9.30
2023-05-02T01:10:55.572Z,9.30
2023-05-02T01:13:35.258Z,9.34
2023-05-02T01:16:05.874Z,9.30
2023-05-02T01:18:38.870Z,9.30
2023-05-02T01:21:10.854Z,9.26
2023-05-02T01:24:25.393Z,9.20
2023-05-02T01:27:21.825Z,9.20
2023-05-02T01:29:52.996Z,9.20
2023-05-02T01:32:23.979Z,9.20
2023-05-02T01:34:54.290Z,9.20
2023-05-02T01:37:25.449Z,9.20
2023-05-02T01:39:56.682Z,9.10
2023-05-02T01:42:25.799Z,9.10
2023-05-02T01:44:56.763Z,9.10
2023-05-02T01:47:26.677Z,9.10
2023-05-02T01:49:54.647Z,9.10
2023-05-02T01:52:25.380Z,9.00
2023-05-02T01:54:57.853Z,9.00
2023-05-02T01:57:26.195Z,8.90
2023-05-02T01:59:57.670Z,8.86
2023-05-02T02:02:28.340Z,8.80
2023-05-02T02:04:59.737Z,8.70
2023-05-02T02:07:27.553Z,8.70
2023-05-02T02:09:55.401Z,8.74
2023-05-02T02:12:40.243Z,8.80
2023-05-02T02:15:21.907Z,8.80
2023-05-02T02:18:14.476Z,8.80
2023-05-02T02:20:46.533Z,8.80
2023-05-02T02:23:16.181Z,8.70
2023-05-02T02:25:46.141Z,8.60
2023-05-02T02:28:14.021Z,8.60
2023-05-02T02:30:41.980Z,8.60
2023-05-02T02:33:09.906Z,8.60
2023-05-02T02:35:43.574Z,8.60
2023-05-02T02:38:38.931Z,8.66
2023-05-02T02:41:16.786Z,8.68
2023-05-02T02:43:53.627Z,8.70
2023-05-02T02:46:51.365Z,8.70
2023-05-02T02:49:54.181Z,8.70
2023-05-02T02:52:40.753Z,8.70
2023-05-02T02:55:21.467Z,8.74
2023-05-02T02:58:01.421Z,8.80
2023-05-02T03:00:29.927Z,8.80
2023-05-02T03:02:57.923Z,8.80
2023-05-02T03:05:26.099Z,8.78
2023-05-02T03:07:54.063Z,8.80
2023-05-02T03:10:25.121Z,8.80
2023-05-02T03:12:55.815Z,8.80
2023-05-02T03:15:36.172Z,8.80
2023-05-02T03:18:04.030Z,8.80
2023-05-02T03:20:31.982Z,8.70
2023-05-02T03:22:59.879Z,8.70
2023-05-02T03:25:28.297Z,8.80
2023-05-02T03:27:58.227Z,8.80
2023-05-02T03:30:26.475Z,8.80
2023-05-02T03:32:54.471Z,8.70
2023-05-02T03:35:22.296Z,8.70
2023-05-02T03:37:51.005Z,8.78
2023-05-02T03:40:22.008Z,8.80
2023-05-02T03:42:49.913Z,8.80
2023-05-02T03:45:17.926Z,8.80
2023-05-02T03:47:45.723Z,8.80
2023-05-02T03:50:13.631Z,8.90
2023-05-02T03:52:41.437Z,8.90
2023-05-02T03:55:09.572Z,9.00
2023-05-02T03:57:37.464Z,9.00
2023-05-02T04:00:06.959Z,9.10
2023-05-02T04:02:34.818Z,9.18
2023-05-02T04:05:02.664Z,9.28
2023-05-02T04:07:30.477Z,9.32
2023-05-02T04:09:58.441Z,9.40
2023-05-02T04:12:26.730Z,9.50
2023-05-02T04:14:55.877Z,9.50
2023-05-02T04:17:23.741Z,9.50
2023-05-02T04:19:52.668Z,9.42
2023-05-02T04:22:20.515Z,9.40
2023-05-02T04:24:48.388Z,9.40
2023-05-02T04:27:16.319Z,9.50
2023-05-02T04:29:44.136Z,9.52
2023-05-02T04:32:12.959Z,9.60
2023-05-02T04:34:40.777Z,9.70
2023-05-02T04:37:08.913Z,9.86
2023-05-02T04:39:36.875Z,9.90
2023-05-02T04:42:04.633Z,9.90
2023-05-02T04:44:32.434Z,9.90
2023-05-02T04:47:00.355Z,10.00
2023-05-02T04:49:28.413Z,10.10
2023-05-02T04:51:56.241Z,10.20
2023-05-02T04:54:24.057Z,10.40
2023-05-02T04:56:51.905Z,10.50
2023-05-02T04:59:19.815Z,10.60
2023-05-02T05:01:47.734Z,10.72
2023-05-02T05:04:15.699Z,10.88
2023-05-02T05:06:43.851Z,11.00
2023-05-02T05:09:11.769Z,11.10
2023-05-02T05:11:39.854Z,11.20
2023-05-02T05:14:07.598Z,11.20
2023-05-02T05:16:35.719Z,11.30
2023-05-02T05:19:04.482Z,11.40
2023-05-02T05:21:32.432Z,11.54
2023-05-02T05:24:00.481Z,11.70
2023-05-02T05:26:28.289Z,11.80
2023-05-02T05:28:56.045Z,11.98
2023-05-02T05:31:24.562Z,12.10
2023-05-02T05:33:52.536Z,12.30
2023-05-02T05:36:22.847Z,12.60
2023-05-02T05:38:51.739Z,12.84
2023-05-02T05:41:19.752Z,13.04
2023-05-02T05:43:47.566Z,13.22
2023-05-02T05:46:15.455Z,13.36
2023-05-02T05:48:43.306Z,13.46
2023-05-02T05:51:11.221Z,13.50
2023-05-02T05:53:39.062Z,13.60
2023-05-02T05:56:14.126Z,13.62
2023-05-02T05:58:43.199Z,13.70
2023-05-02T06:01:11.432Z,13.70
2023-05-02T06:03:39.352Z,13.70
2023-05-02T06:06:07.372Z,13.80
2023-05-02T06:08:35.396Z,13.80
2023-05-02T06:11:03.259Z,13.72
2023-05-02T06:13:31.086Z,13.70
2023-05-02T06:16:02.848Z,13.70
2023-05-02T06:18:30.850Z,13.70
2023-05-02T06:21:03.381Z,13.70
2023-05-02T06:23:32.328Z,13.70
2023-05-02T06:26:01.615Z,13.80
2023-05-02T06:28:31.449Z,13.80
2023-05-02T06:31:01.807Z,13.80
2023-05-02T06:33:32.248Z,13.80
2023-05-02T06:36:01.902Z,13.90
2023-05-02T06:38:30.644Z,13.90
2023-05-02T06:40:58.540Z,13.90
2023-05-02T06:43:26.651Z,14.00
2023-05-02T06:45:56.491Z,14.00
2023-05-02T06:48:24.839Z,14.06
2023-05-02T06:50:54.098Z,14.10
2023-05-02T06:53:22.286Z,14.10
2023-05-02T06:55:51.018Z,14.20
2023-05-02T06:58:18.985Z,14.20
2023-05-02T07:00:48.840Z,14.24
2023-05-02T07:03:16.875Z,14.30
2023-05-02T07:05:44.673Z,14.30
2023-05-02T07:08:12.799Z,14.30
2023-05-02T07:10:40.624Z,14.40
2023-05-02T07:13:08.435Z,14.40
2023-05-02T07:15:36.306Z,14.40
2023-05-02T07:18:04.244Z,14.40
2023-05-02T07:20:32.768Z,14.50
2023-05-02T07:23:00.677Z,14.50
2023-05-02T07:25:28.472Z,14.60
2023-05-02T07:27:56.410Z,14.70
2023-05-02T07:30:24.263Z,14.72
2023-05-02T07:32:52.205Z,14.80
2023-05-02T07:35:20.387Z,14.80
2023-05-02T07:37:48.314Z,14.90
2023-05-02T07:40:16.661Z,14.90
2023-05-02T07:42:44.737Z,15.00
2023-05-02T07:45:12.791Z,15.00
2023-05-02T07:47:46.052Z,15.10
2023-05-02T07:50:13.937Z,15.18
2023-05-02T07:52:41.724Z,15.20
2023-05-02T07:55:10.344Z,15.30
2023-05-02T07:57:38.385Z,15.30
2023-05-02T08:00:10.756Z,15.30
2023-05-02T08:02:38.782Z,15.30
2023-05-02T08:05:08.058Z,15.30
2023-05-02T08:07:37.206Z,15.40
2023-05-02T08:10:09.296Z,15.52
2023-05-02T08:12:43.472Z,15.60
2023-05-02T08:15:14.996Z,15.66
2023-05-02T08:17:43.080Z,15.80
2023-05-02T08:20:15.891Z,16.00
2023-05-02T08:22:43.729Z,16.20
2023-05-02T08:25:11.758Z,16.50
2023-05-02T08:27:39.706Z,16.70
2023-05-02T08:30:09.027Z,16.86
2023-05-02T08:32:37.853Z,17.08
2023-05-02T08:35:06.846Z,17.20
2023-05-02T08:37:34.966Z,17.48
2023-05-02T08:40:03.487Z,17.62
2023-05-02T08:42:34.826Z,17.76
2023-05-02T08:45:03.102Z,17.90
2023-05-02T08:47:32.610Z,18.00
2023-05-02T08:50:02.195Z,18.20
2023-05-02T08:52:33.063Z,18.30
2023-05-02T08:55:02.362Z,18.40
2023-05-02T08:57:31.103Z,18.50
2023-05-02T08:59:59.442Z,18.60
2023-05-02T09:02:57.956Z,18.60
2023-05-02T09:05:26.015Z,18.60
2023-05-02T09:07:53.934Z,18.50
2023-05-02T09:10:22.121Z,18.70
2023-05-02T09:12:49.923Z,18.62
2023-05-02T09:15:20.703Z,18.64
2023-05-02T09:17:49.793Z,18.66
2023-05-02T09:20:17.740Z,18.80
2023-05-02T09:22:51.465Z,18.90
2023-05-02T09:25:22.721Z,19.16
2023-05-02T09:27:56.088Z,19.10
2023-05-02T09:30:26.265Z,18.80
2023-05-02T09:32:56.150Z,18.72
2023-05-02T09:35:24.819Z,18.50
2023-05-02T09:38:10.484Z,18.40
2023-05-02T09:40:57.692Z,18.34
2023-05-02T09:43:26.970Z,18.50
2023-05-02T09:46:00.514Z,18.40
2023-05-02T09:48:30.626Z,18.26
2023-05-02T09:50:58.744Z,18.20
2023-05-02T09:53:28.270Z,18.00
2023-05-02T09:56:06.013Z,17.90
2023-05-02T09:58:33.734Z,17.90
2023-05-02T10:01:02.495Z,17.70
2023-05-02T10:03:32.337Z,17.60
2023-05-02T10:06:01.982Z,17.42
2023-05-02T10:08:29.923Z,17.40
2023-05-02T10:10:59.981Z,17.40
2023-05-02T10:13:32.368Z,17.30
2023-05-02T10:16:03.428Z,17.40
2023-05-02T10:18:49.522Z,17.20
2023-05-02T10:21:27.608Z,17.10
2023-05-02T10:23:56.731Z,16.90
2023-05-02T10:26:25.319Z,16.78
2023-05-02T10:28:57.256Z,16.70
2023-05-02T10:31:27.341Z,16.90
2023-05-02T10:33:58.122Z,17.28
2023-05-02T10:36:27.314Z,17.50
2023-05-02T10:38:55.821Z,17.48
2023-05-02T10:41:31.957Z,17.60
2023-05-02T10:44:00.847Z,17.72
2023-05-02T10:46:41.548Z,17.90
2023-05-02T10:49:14.209Z,17.80
2023-05-02T10:51:43.578Z,17.70
2023-05-02T10:54:17.313Z,17.40
2023-05-02T10:57:03.706Z,17.60
2023-05-02T10:59:33.968Z,17.70
2023-05-02T11:02:04.014Z,17.94
2023-05-02T11:05:08.544Z,18.20
2023-05-02T11:07:38.031Z,18.40
2023-05-02T11:10:18.055Z,18.10
2023-05-02T11:12:51.591Z,17.80
2023-05-02T11:15:29.213Z,17.48
2023-05-02T11:18:14.796Z,17.06
2023-05-02T11:20:44.672Z,16.80
2023-05-02T11:23:15.712Z,16.80
2023-05-02T11:25:49.757Z,16.64
2023-05-02T11:28:48.021Z,16.32
2023-05-02T11:31:28.625Z,16.10
2023-05-02T11:34:01.406Z,15.90
2023-05-02T11:36:30.960Z,15.82
2023-05-02T11:38:59.980Z,15.70
2023-05-02T11:41:44.512Z,15.48
2023-05-02T11:44:12.272Z,15.10
2023-05-02T11:46:41.363Z,15.00
2023-05-02T11:49:10.548Z,14.84
2023-05-02T11:51:39.565Z,14.80
2023-05-02T11:54:08.344Z,14.70
2023-05-02T11:56:36.386Z,14.66
2023-05-02T11:59:05.021Z,14.50
2023-05-02T12:01:32.842Z,14.30
2023-05-02T12:04:07.326Z,14.20
2023-05-02T12:06:35.612Z,14.00
2023-05-02T12:09:16.322Z,13.90
2023-05-02T12:11:45.270Z,13.62
2023-05-02T12:14:13.179Z,13.50
2023-05-02T12:16:42.248Z,13.50
2023-05-02T12:19:10.515Z,13.58
2023-05-02T12:21:38.512Z,13.80
2023-05-02T12:24:06.409Z,14.00
2023-05-02T12:26:34.420Z,13.90
2023-05-02T12:29:02.947Z,13.70
2023-05-02T12:31:32.451Z,13.60
2023-05-02T12:34:01.534Z,13.60
2023-05-02T12:36:30.067Z,13.50
2023-05-02T12:39:00.015Z,13.50
2023-05-02T12:41:33.642Z,13.60
2023-05-02T12:44:02.212Z,13.50
2023-05-02T12:46:31.984Z,13.30
2023-05-02T12:49:09.659Z,13.00
2023-05-02T12:51:39.968Z,12.80
2023-05-02T12:54:08.342Z,12.80
2023-05-02T12:56:44.307Z,12.70
2023-05-02T12:59:28.461Z,12.80
2023-05-02T13:01:56.440Z,12.80
2023-05-02T13:04:42.369Z,12.80
2023-05-02T13:07:11.409Z,12.80
2023-05-02T13:09:39.322Z,12.80
2023-05-02T13:12:07.324Z,12.70
2023-05-02T13:14:35.442Z,12.60
2023-05-02T13:17:04.307Z,12.36
2023-05-02T13:19:32.502Z,12.10
2023-05-02T13:22:00.497Z,12.00
2023-05-02T13:24:28.276Z,11.90
2023-05-02T13:26:56.225Z,11.86
2023-05-02T13:29:24.036Z,11.80
2023-05-02T13:31:51.861Z,11.90
2023-05-02T13:34:19.675Z,12.00
2023-05-02T13:36:47.482Z,12.10
2023-05-02T13:39:15.407Z,12.20
2023-05-02T13:41:43.373Z,12.30
2023-05-02T13:44:11.123Z,12.40
2023-05-02T13:46:39.105Z,12.46
2023-05-02T13:49:06.974Z,12.60
2023-05-02T13:51:35.202Z,12.62
2023-05-02T13:54:03.178Z,12.60
2023-05-02T13:56:31.226Z,12.60
2023-05-02T13:58:59.011Z,12.60
2023-05-02T14:01:28.361Z,12.56
2023-05-02T14:03:56.341Z,12.50
2023-05-02T14:06:24.810Z,12.50
2023-05-02T14:08:52.800Z,12.42
2023-05-02T14:11:20.782Z,12.40
2023-05-02T14:13:48.783Z,12.42
2023-05-02T14:16:16.888Z,12.40
2023-05-02T14:18:47.166Z,12.40
2023-05-02T14:21:15.647Z,12.40
2023-05-02T14:23:47.000Z,12.30
2023-05-02T14:26:17.107Z,12.30
2023-05-02T14:28:44.910Z,12.20
2023-05-02T14:31:15.022Z,12.08
2023-05-02T14:33:50.319Z,11.90
2023-05-02T14:36:18.183Z,11.90
2023-05-02T14:38:46.044Z,11.88
2023-05-02T14:41:20.782Z,11.90
2023-05-02T14:44:06.503Z,11.90
2023-05-02T14:46:36.978Z,12.00
2023-05-02T14:49:04.875Z,12.10
2023-05-02T14:51:33.005Z,12.10
2023-05-02T14:54:01.294Z,12.20
2023-05-02T14:56:34.418Z,12.28
2023-05-02T14:59:03.184Z,12.20
2023-05-02T15:01:31.215Z,12.22
2023-05-02T15:04:06.419Z,12.40
2023-05-02T15:06:36.454Z,12.66
2023-05-02T15:09:05.235Z,12.80
2023-05-02T15:11:33.306Z,12.90
2023-05-02T15:14:01.380Z,13.08
2023-05-02T15:16:30.107Z,13.20
2023-05-02T15:18:57.993Z,13.12
2023-05-02T15:21:25.956Z,13.30
2023-05-02T15:23:54.058Z,13.30
2023-05-02T15:26:22.752Z,13.30
2023-05-02T15:28:50.526Z,13.30
2023-05-02T15:31:18.582Z,13.30
2023-05-02T15:33:46.382Z,13.20
2023-05-02T15:36:14.356Z,13.30
2023-05-02T15:38:43.206Z,12.90
2023-05-02T15:41:11.701Z,12.30
2023-05-02T15:43:39.493Z,11.90
2023-05-02T15:46:07.349Z,11.70
2023-05-02T15:48:35.495Z,11.50
2023-05-02T15:51:05.518Z,11.22
2023-05-02T15:53:34.789Z,10.90
2023-05-02T15:56:02.597Z,10.70
2023-05-02T15:58:30.423Z,10.60
2023-05-02T16:00:58.238Z,10.60
2023-05-02T16:03:26.109Z,10.52
2023-05-02T16:05:55.453Z,10.56
2023-05-02T16:08:23.450Z,10.44
2023-05-02T16:10:51.856Z,10.30
2023-05-02T16:13:20.647Z,10.30
2023-05-02T16:15:48.576Z,10.22
2023-05-02T16:18:16.570Z,10.30
2023-05-02T16:20:44.742Z,10.10
2023-05-02T16:23:12.759Z,10.04
2023-05-02T16:25:45.719Z,10.52
2023-05-02T16:28:13.564Z,10.90
2023-05-02T16:30:41.907Z,11.12
2023-05-02T16:33:09.982Z,11.30
2023-05-02T16:35:37.829Z,11.52
2023-05-02T16:38:07.882Z,11.88
2023-05-02T16:40:37.159Z,12.00
2023-05-02T16:43:05.462Z,12.10
2023-05-02T16:45:33.498Z,12.20
2023-05-02T16:48:01.524Z,12.40
2023-05-02T16:50:29.453Z,12.50
2023-05-02T16:53:00.678Z,12.60
2023-05-02T16:55:30.597Z,12.78
2023-05-02T16:57:58.353Z,12.80
2023-05-02T17:00:26.359Z,12.86
2023-05-02T17:02:57.197Z,12.82
2023-05-02T17:05:25.303Z,12.72
2023-05-02T17:07:53.095Z,12.80
2023-05-02T17:10:20.904Z,12.84
2023-05-02T17:12:51.725Z,12.80
2023-05-02T17:15:19.964Z,12.70
2023-05-02T17:17:47.990Z,12.96
2023-05-02T17:20:17.432Z,13.10
2023-05-02T17:22:45.668Z,13.00
2023-05-02T17:25:14.352Z,12.70
2023-05-02T17:27:42.433Z,12.60
2023-05-02T17:30:27.715Z,12.60
2023-05-02T17:32:58.901Z,12.70
2023-05-02T17:35:27.215Z,12.70
2023-05-02T17:37:55.549Z,12.46
2023-05-02T17:40:23.650Z,11.84
2023-05-02T17:42:51.586Z,11.30
2023-05-02T17:45:19.526Z,10.80
2023-05-02T17:47:47.441Z,10.46
2023-05-02T17:50:15.437Z,10.20
2023-05-02T17:52:43.247Z,10.00
2023-05-02T17:55:11.337Z,9.80
2023-05-02T17:57:39.276Z,9.62
2023-05-02T18:00:08.277Z,9.50
2023-05-02T18:02:45.853Z,9.30
2023-05-02T18:05:17.745Z,9.20
2023-05-02T18:07:47.834Z,9.00
2023-05-02T18:10:15.989Z,8.90
2023-05-02T18:12:44.106Z,8.72
2023-05-02T18:15:12.377Z,8.60
2023-05-02T18:17:40.634Z,8.50
2023-05-02T18:20:10.107Z,8.46
2023-05-02T18:22:38.277Z,8.40
2023-05-02T18:25:06.906Z,8.30
2023-05-02T18:27:35.191Z,8.24
2023-05-02T18:30:03.843Z,8.20
2023-05-02T18:32:34.851Z,8.18
2023-05-02T18:35:06.566Z,8.10
2023-05-02T18:37:34.758Z,8.10
2023-05-02T18:40:03.334Z,8.00
2023-05-02T18:42:31.609Z,8.00
2023-05-02T18:44:59.615Z,8.00
2023-05-02T18:47:27.838Z,7.90
2023-05-02T18:49:59.449Z,7.90
2023-05-02T18:52:30.911Z,7.90
2023-05-02T18:54:59.406Z,7.86
2023-05-02T18:57:29.362Z,7.84
2023-05-02T19:00:03.430Z,7.80
2023-05-02T19:02:36.286Z,7.80
2023-05-02T19:05:09.762Z,7.70
2023-05-02T19:07:38.501Z,7.66
2023-05-02T19:10:07.329Z,7.60
2023-05-02T19:12:35.334Z,7.50
2023-05-02T19:15:06.826Z,7.40
2023-05-02T19:17:35.273Z,7.30
2023-05-02T19:20:04.269Z,7.30
2023-05-02T19:22:34.798Z,7.20
2023-05-02T19:25:05.758Z,7.20
2023-05-02T19:27:35.082Z,7.10
2023-05-02T19:30:04.374Z,7.00
2023-05-02T19:32:36.957Z,6.92
2023-05-02T19:35:05.892Z,6.90
2023-05-02T19:37:33.642Z,6.90
2023-05-02T19:40:01.572Z,6.90
2023-05-02T19:42:29.303Z,6.80
2023-05-02T19:44:57.373Z,6.70
2023-05-02T19:47:27.659Z,6.60
2023-05-02T19:49:55.645Z,6.60
2023-05-02T19:52:23.651Z,6.56
2023-05-02T19:54:51.536Z,6.52
2023-05-02T19:57:19.497Z,6.50
2023-05-02T19:59:47.329Z,6.40
2023-05-02T20:02:15.489Z,6.30
2023-05-02T20:04:43.238Z,6.20
2023-05-02T20:07:11.028Z,6.16
2023-05-02T20:09:38.995Z,6.10
2023-05-02T20:12:06.961Z,6.04
2023-05-02T20:14:34.804Z,6.00
2023-05-02T20:17:02.734Z,5.90
2023-05-02T20:19:32.425Z,5.80
2023-05-02T20:22:00.474Z,5.80
2023-05-02T20:24:28.325Z,5.70
2023-05-02T20:26:56.151Z,5.70
2023-05-02T20:29:24.815Z,5.60
2023-05-02T20:31:54.444Z,5.58
2023-05-02T20:34:23.738Z,5.50
2023-05-02T20:36:52.685Z,5.40
2023-05-02T20:39:22.033Z,5.38
2023-05-02T20:41:50.081Z,5.30
2023-05-02T20:44:18.935Z,5.36
2023-05-02T20:46:46.755Z,5.40
2023-05-02T20:49:14.746Z,5.40
2023-05-02T20:51:42.559Z,5.40
2023-05-02T20:54:10.911Z,5.40
2023-05-02T20:56:39.265Z,5.40
2023-05-02T20:59:07.249Z,5.30
2023-05-02T21:01:35.177Z,5.16
2023-05-02T21:04:04.256Z,5.10
2023-05-02T21:06:32.778Z,5.00
2023-05-02T21:09:02.183Z,5.00
2023-05-02T21:11:30.594Z,4.90
2023-05-02T21:13:58.500Z,4.90
2023-05-02T21:16:26.502Z,4.90
2023-05-02T21:18:55.084Z,4.90
2023-05-02T21:21:23.320Z,4.94
2023-05-02T21:23:51.254Z,5.00
2023-05-02T21:26:19.075Z,5.10
2023-05-02T21:28:47.179Z,5.02
2023-05-02T21:31:14.951Z,5.00
2023-05-02T21:33:42.796Z,4.90
2023-05-02T21:36:11.442Z,4.90
2023-05-02T21:38:39.411Z,4.90
2023-05-02T21:41:07.437Z,4.80
2023-05-02T21:43:40.199Z,4.72
2023-05-02T21:46:11.852Z,4.64
2023-05-02T21:48:40.286Z,4.60
2023-05-02T21:51:09.774Z,4.50
2023-05-02T21:53:38.329Z,4.50
2023-05-02T21:56:07.977Z,4.40
2023-05-02T21:58:35.954Z,4.40
2023-05-02T22:01:03.889Z,4.40
2023-05-02T22:03:33.886Z,4.40
2023-05-02T22:06:06.454Z,4.40
2023-05-02T22:08:35.834Z,4.30
2023-05-02T22:11:10.736Z,4.30
2023-05-02T22:13:38.853Z,4.30
2023-05-02T22:16:07.731Z,4.24
2023-05-02T22:18:35.663Z,4.20
2023-05-02T22:21:03.964Z,4.10
2023-05-02T22:23:32.019Z,4.10
2023-05-02T22:25:59.849Z,4.10
2023-05-02T22:28:27.768Z,4.10
2023-05-02T22:30:55.857Z,4.10
2023-05-02T22:33:23.744Z,4.10
2023-05-02T22:35:51.580Z,4.12
2023-05-02T22:38:20.061Z,4.10
2023-05-02T22:40:47.995Z,4.10
2023-05-02T22:43:17.025Z,4.10
2023-05-02T22:45:44.815Z,4.10
2023-05-02T22:48:12.664Z,4.10
2023-05-02T22:50:42.831Z,4.10
2023-05-02T22:53:10.680Z,4.10
2023-05-02T22:55:39.208Z,4.10
2023-05-02T22:58:07.036Z,4.10
2023-05-02T23:00:34.877Z,4.08
2023-05-02T23:03:03.363Z,4.00
2023-05-02T23:05:31.393Z,4.00
2023-05-02T23:07:59.192Z,3.94
2023-05-02T23:10:27.233Z,3.90
2023-05-02T23:12:55.026Z,3.90
2023-05-02T23:15:22.781Z,3.88
2023-05-02T23:17:50.695Z,3.80
2023-05-02T23:20:20.524Z,3.80
2023-05-02T23:22:48.300Z,3.80
2023-05-02T23:25:16.078Z,3.80
2023-05-02T23:27:44.001Z,3.80
2023-05-02T23:30:12.072Z,3.80
2023-05-02T23:32:40.312Z,3.80
2023-05-02T23:35:08.753Z,3.80
2023-05-02T23:37:37.177Z,3.80
2023-05-02T23:40:08.901Z,3.76
2023-05-02T23:42:40.393Z,3.70
2023-05-02T23:45:10.506Z,3.74
2023-05-02T23:47:38.672Z,3.70
2023-05-02T23:50:07.854Z,3.70
2023-05-02T23:52:35.910Z,3.70
2023-05-02T23:55:04.382Z,3.68
2023-05-02T23:57:32.166Z,3.70
